x

Gulf Of Maine - 78 Nm East Of Portsmouth, Nh (44005) Wave Buoy

5:50 - Mon 28th Jul 2014 All times are EDT. -4 hours from GMT.

  • Sig Wave height 3.3ft
  • Peak Period 6s
  • Average Period 5s
  • Wind
    16mph, 20mph gusts
  • Sea Temp 65°f
  • Ar Temp 68°f
  • Sea Pressure 998.3mb
  • Gulf Of Maine - 78 Nm East Of Portsmouth, Nh
  • Gulf Of Maine - 78 Nm East Of Portsmouth, Nh

More Historic Weather Station data

Upgrade to MSW Pro to gain access to the past 30 days of data for over 8000 Wavebouys and Weather Stations around the globe.

Join Pro

Comparision Forecast

View Surf forecast
   
Seg 07/28 5:50 3.5ft 6s 5s 16 20 mph 998.3mb 65f 68f
4:50 3.5ft 6s 5s 11 13 mph 998.5mb 65f 68f
3:50 4ft 7s 5s 13 16 mph 999.5mb 65f 67f
2:50 4.5ft 5s 5s 16 18 mph 1000mb 65f 67f
1:50 4.5ft 5s 4s 20 22 mph 1000.1mb 65f 67f
12:50 4.5ft 4s 4s 20 25 mph 1000.9mb 65f 67f
11:50 3.5ft 6s 4s 27 31 mph 1001.8mb 65f 68f
10:50 2.5ft 7s 4s 18 22 mph 1002.3mb 65f 67f
9:50 2.5ft 5s 5s 13 16 mph 1002.8mb 65f 66f
8:50 2.5ft 5s 5s 11 13 mph 1004.1mb 65f 66f
7:50 2.5ft 7s 5s 11
mph
1004.2mb 65f 66f
6:50 2.5ft 5s 5s 4 7 mph 1004.2mb 65f 66f
5:50 3ft 5s 4s 7 9 mph 1004.3mb 65f 66f
4:50 3ft 5s 4s 7 9 mph 1004.3mb 65f 67f
3:50 3ft 5s 4s 9 13 mph 1003.8mb 66f 67f
2:50 3.5ft 5s 5s 11 16 mph 1003.8mb 65f 67f
1:50 3.5ft 5s 4s 11 13 mph 1004.1mb 65f 67f
12:50 3.5ft 5s 4s 13 16 mph 1004.4mb 65f 67f
Dom 07/27 11:50 3.5ft 5s 4s 13 16 mph 1004.8mb 65f 67f
10:50 3.5ft 5s 4s 13 18 mph 1005.1mb 65f 68f
9:50 3.5ft 6s 5s 16 20 mph 1005.7mb 65f 67f
8:50 3.5ft 7s 5s 16 18 mph 1005.6mb 65f 67f
7:50 3.5ft 5s 5s 16 18 mph 1005.7mb 65f 67f
6:50 3.5ft 5s 5s 13 16 mph 1006mb 65f 66f
5:50 4ft 5s 5s 11 13 mph 1007mb 65f 66f
4:50 4ft 5s 4s 18 22 mph 1007.2mb 65f 67f
3:50 4.5ft 5s 4s 20 22 mph 1007.7mb 65f 67f
2:50 3.5ft 4s 4s 20 22 mph 1007.7mb 66f 68f
1:50 3.5ft 4s 4s 18 22 mph 1008mb 66f 68f
12:50 3ft 4s 4s 20 22 mph 1008.2mb 66f 68f
11:50 3ft 4s 4s 18 22 mph 1008.6mb 66f 67f
10:50 3ft 8s 4s 16 18 mph 1009mb 66f 67f
9:50 3ft 5s 4s 16 18 mph 1009.4mb 66f 67f
8:50 3.5ft 7s 5s 13 16 mph 1009.9mb 66f 67f
7:50 3.5ft 7s 5s 11 13 mph 1010mb 66f 67f
6:50 3.5ft 5s 5s 13 16 mph 1010.3mb 66f 67f
5:50 4ft 5s 5s 13 16 mph 1010.4mb 66f 67f
4:50 4ft 8s 4s 16 18 mph 1010.3mb 66f 67f
3:50 4ft 6s 5s 16 18 mph 1010mb 66f 67f
2:50 4ft 6s 5s 16 18 mph 1010.2mb 66f 67f
1:50 4.5ft 6s 5s 16 20 mph 1010.5mb 66f 67f
12:50 4ft 6s 5s 18 22 mph 1010.6mb 66f 68f
Sáb 07/26 11:50 4ft 5s 4s 18 20 mph 1011mb 66f 68f
10:50 4ft 5s 4s 18 20 mph 1011.1mb 66f 68f
9:50 4ft 5s 5s 20 22 mph 1011.2mb 65f 68f
8:50 4.5ft 5s 4s 20 22 mph 1011mb 66f 68f
7:50 4ft 5s 4s 18 22 mph 1010.9mb 66f 68f
6:50 3.5ft 4s 4s 20 25 mph 1011.1mb 66f 69f
5:50 3.5ft 4s 4s 20 22 mph 1011.2mb 65f 69f
4:50 3ft 7s 4s 18 20 mph 1011.7mb 65f 69f
3:50 2.5ft 8s 4s 16 18 mph 1012mb 66f 68f
2:50 2.5ft 8s 4s 16
mph
1012.2mb 65f 68f
1:50 2.5ft 8s 4s 9 11 mph 1012.9mb 65f 67f
12:50 2.5ft 8s 4s 13 16 mph 1013.2mb 66f 67f
11:50 2.5ft 8s 4s 13 16 mph 1013.3mb 66f 67f
10:50 2.5ft 9s 4s 11 13 mph 1013.6mb 66f 67f
9:50 2.5ft 8s 4s 13 16 mph 1013.7mb 66f 67f
8:50 3ft 8s 5s 11 13 mph 1013.9mb 66f 67f
7:50 2.5ft 8s 5s 11 13 mph 1013.9mb 66f 67f
6:50 3ft 9s 5s 9 11 mph 1013.8mb 66f 67f
5:50 3ft 8s 5s 13 16 mph 1013.6mb 66f 67f
4:50 3.5ft 8s 5s 11 13 mph 1013.4mb 66f 67f
3:50 3.5ft 8s 5s 11 13 mph 1013.2mb 66f 68f
2:50 3.5ft 5s 5s 13 16 mph 1012.9mb 66f 68f
1:50 3.5ft 4s 4s 16 18 mph 1013mb 66f 67f
12:50 3ft 4s 4s 16 18 mph 1013.1mb 65f 67f
Sex 07/25 11:50 2.5ft 9s 4s 16 18 mph 1013.2mb 64f 67f
10:50 2.5ft 9s 4s 16 20 mph 1013mb 64f 67f
9:50 2.5ft 9s 4s 13 16 mph 1012.9mb 64f 67f
8:50 2.5ft 10s 4s 13 16 mph 1012.5mb 65f 67f
7:50 2.5ft 9s 5s 13 16 mph 1012.3mb 66f 67f
6:50 2.5ft 9s 5s 13 16 mph 1012.2mb 66f 67f
5:50 2.5ft 8s 5s 11 13 mph 1012.1mb 67f 68f
4:50 2.5ft 10s 5s 13 16 mph 1012.1mb 67f 68f
3:50 2ft 10s 5s 11 13 mph 1012.1mb 67f 67f
2:50 1.6ft 9s 5s 13
mph
1012.4mb 67f 67f
1:50 2ft 9s 5s 9 11 mph 1012.4mb 67f 67f
12:50 1.6ft 9s 5s 9 11 mph 1012.9mb 66f 66f
11:50 1.6ft 9s 5s 9 11 mph 1013.1mb 66f 66f
10:50 2ft 9s 5s 9 11 mph 1013.1mb 66f 65f
9:50 2ft 9s 5s 11
mph
1012.9mb 65f 65f
8:50 2ft 10s 5s 9 11 mph 1012.9mb 65f 65f
7:50 2.5ft 8s 5s 9 11 mph 1013mb 63f 65f
6:50 2.5ft 7s 5s 9 11 mph 1012.6mb 64f 65f
5:50 2.5ft 8s 4s 13 16 mph 1012.1mb 65f 65f
4:50 2.5ft 8s 5s 13 18 mph 1011.5mb 65f 65f
3:50 2.5ft 8s 5s 13 16 mph 1011.3mb 66f 66f
2:50  -   -   -  13 16 mph 1011.1mb 66f 67f
1:50  -   -   -  11 13 mph 1010.9mb 66f 66f
12:50 1.6ft 8s 6s 11
mph
1011.3mb 66f 66f
Qui 07/24 11:50 2ft 8s 6s 7 9 mph 1011mb 66f 66f
10:50 1.6ft 9s 5s 4
mph
1010.7mb 66f 65f